createdAt,value
2023-07-30T00:01:43.414Z,4.20
2023-07-30T00:04:13.120Z,3.47
2023-07-30T00:06:42.955Z,4.13
2023-07-30T00:09:12.802Z,4.53
2023-07-30T00:11:42.640Z,4.27
2023-07-30T00:14:12.242Z,3.93
2023-07-30T00:16:42.085Z,3.67
2023-07-30T00:19:11.915Z,3.77
2023-07-30T00:21:43.465Z,4.47
2023-07-30T00:24:13.241Z,4.03
2023-07-30T00:26:43.152Z,4.00
2023-07-30T00:29:13.067Z,3.90
2023-07-30T00:31:43.043Z,3.57
2023-07-30T00:34:12.948Z,4.30
2023-07-30T00:36:42.803Z,4.17
2023-07-30T00:39:12.622Z,3.87
2023-07-30T00:41:42.474Z,4.20
2023-07-30T00:44:12.331Z,3.87
2023-07-30T00:46:42.956Z,4.47
2023-07-30T00:49:13.303Z,4.10
2023-07-30T00:51:44.498Z,3.90
2023-07-30T00:54:15.029Z,3.63
2023-07-30T00:56:47.898Z,4.13
2023-07-30T00:59:17.770Z,4.23
2023-07-30T01:01:48.827Z,4.50
2023-07-30T01:04:19.013Z,4.50
2023-07-30T01:06:48.978Z,4.77
2023-07-30T01:09:18.955Z,4.27
2023-07-30T01:11:49.934Z,4.37
2023-07-30T01:14:22.119Z,3.77
2023-07-30T01:16:52.020Z,4.60
2023-07-30T01:19:21.886Z,3.90
2023-07-30T01:21:51.545Z,3.90
2023-07-30T01:24:21.097Z,3.97
2023-07-30T01:26:53.998Z,4.40
2023-07-30T01:29:52.735Z,4.10
2023-07-30T01:32:24.662Z,4.17
2023-07-30T01:34:59.899Z,4.03
2023-07-30T01:37:31.437Z,4.17
2023-07-30T01:40:01.995Z,3.73
2023-07-30T01:42:32.575Z,3.87
2023-07-30T01:45:02.416Z,4.30
2023-07-30T01:47:32.333Z,3.70
2023-07-30T01:50:02.351Z,4.57
2023-07-30T01:52:32.278Z,3.83
2023-07-30T01:55:02.263Z,4.10
2023-07-30T01:57:32.112Z,3.43
2023-07-30T02:00:02.020Z,3.97
2023-07-30T02:05:20.795Z,4.87
2023-07-30T02:07:50.650Z,4.50
2023-07-30T02:10:20.208Z,3.37
2023-07-30T02:12:50.062Z,4.07
2023-07-30T02:15:19.912Z,4.07
2023-07-30T02:17:49.795Z,4.07
2023-07-30T02:20:19.574Z,3.70
2023-07-30T02:22:49.221Z,4.25
2023-07-30T02:25:19.999Z,4.37
2023-07-30T02:27:49.863Z,4.87
2023-07-30T02:30:19.759Z,4.35
2023-07-30T02:32:49.682Z,4.10
2023-07-30T02:35:19.577Z,4.45
2023-07-30T02:37:51.952Z,4.70
2023-07-30T02:40:21.310Z,5.83
2023-07-30T02:42:51.207Z,4.57
2023-07-30T02:45:21.082Z,5.95
2023-07-30T02:47:50.944Z,5.50
2023-07-30T02:50:21.450Z,5.37
2023-07-30T02:52:51.737Z,5.83
2023-07-30T02:55:21.761Z,6.33
2023-07-30T02:57:51.590Z,6.07
2023-07-30T03:00:21.540Z,6.63
2023-07-30T03:02:51.931Z,5.45
2023-07-30T03:05:21.858Z,5.92
2023-07-30T03:07:51.454Z,6.30
2023-07-30T03:10:21.340Z,5.60
2023-07-30T03:12:51.172Z,6.17
2023-07-30T03:15:20.893Z,6.10
2023-07-30T03:17:50.756Z,6.97
2023-07-30T03:20:20.575Z,7.02
2023-07-30T03:22:50.539Z,7.60
2023-07-30T03:25:20.087Z,6.80
2023-07-30T03:27:51.349Z,6.75
2023-07-30T03:30:21.357Z,7.63
2023-07-30T03:32:52.105Z,7.73
2023-07-30T03:35:22.040Z,9.05
2023-07-30T03:37:53.402Z,8.60
2023-07-30T03:40:23.015Z,8.77
2023-07-30T03:42:54.579Z,8.47
2023-07-30T03:45:24.353Z,8.40
2023-07-30T03:47:54.291Z,8.40
2023-07-30T03:50:24.174Z,8.45
2023-07-30T03:52:54.089Z,8.07
2023-07-30T03:55:23.926Z,9.18
2023-07-30T03:57:54.133Z,9.35
2023-07-30T04:00:24.135Z,8.70
2023-07-30T04:02:54.052Z,9.80
2023-07-30T04:05:23.909Z,9.50
2023-07-30T04:07:53.806Z,9.37
2023-07-30T04:10:23.647Z,9.70
2023-07-30T04:12:53.217Z,8.80
2023-07-30T04:15:22.776Z,10.00
2023-07-30T04:17:54.233Z,9.90
2023-07-30T04:20:24.257Z,10.43
2023-07-30T04:22:54.267Z,9.30
2023-07-30T04:25:24.136Z,11.55
2023-07-30T04:27:54.100Z,10.37
2023-07-30T04:30:23.701Z,10.73
2023-07-30T04:32:53.886Z,10.23
2023-07-30T04:35:23.710Z,10.58
2023-07-30T04:37:53.794Z,11.00
2023-07-30T04:40:23.647Z,10.48
2023-07-30T04:42:53.498Z,12.30
2023-07-30T04:45:23.691Z,11.68
2023-07-30T04:47:54.364Z,11.10
2023-07-30T04:50:24.424Z,10.95
2023-07-30T04:52:54.344Z,10.33
2023-07-30T04:55:24.178Z,11.48
2023-07-30T04:57:53.843Z,11.45
2023-07-30T05:00:23.521Z,10.80
2023-07-30T05:02:53.989Z,11.90
2023-07-30T05:05:23.958Z,10.70
2023-07-30T05:07:53.581Z,12.00
2023-07-30T05:10:23.405Z,11.55
2023-07-30T05:12:53.277Z,12.23
2023-07-30T05:15:23.160Z,12.00
2023-07-30T05:17:53.143Z,11.93
2023-07-30T05:20:23.020Z,11.60
2023-07-30T05:22:52.882Z,11.77
2023-07-30T05:25:22.418Z,12.33
2023-07-30T05:27:52.625Z,12.37
2023-07-30T05:30:22.329Z,11.27
2023-07-30T05:32:52.305Z,11.43
2023-07-30T05:35:23.264Z,11.78
2023-07-30T05:37:54.222Z,12.23
2023-07-30T05:40:24.324Z,12.35
2023-07-30T05:42:54.166Z,12.33
2023-07-30T05:45:24.106Z,12.60
2023-07-30T05:47:54.223Z,10.20
2023-07-30T05:50:24.264Z,11.63
2023-07-30T05:52:54.101Z,11.50
2023-07-30T05:55:23.969Z,10.93
2023-07-30T05:57:54.505Z,11.10
2023-07-30T06:00:25.177Z,11.93
2023-07-30T06:02:55.087Z,10.47
2023-07-30T06:05:24.971Z,11.80
2023-07-30T06:07:56.842Z,10.27
2023-07-30T06:10:26.003Z,10.60
2023-07-30T06:12:55.860Z,10.03
2023-07-30T06:15:25.698Z,11.57
2023-07-30T06:17:55.900Z,11.20
2023-07-30T06:20:25.735Z,11.13
2023-07-30T06:22:55.933Z,11.75
2023-07-30T06:25:25.516Z,11.12
2023-07-30T06:27:57.160Z,12.88
2023-07-30T06:30:26.928Z,10.77
2023-07-30T06:32:56.833Z,12.33
2023-07-30T06:35:26.689Z,12.87
2023-07-30T06:37:56.849Z,13.60
2023-07-30T06:40:26.456Z,13.43
2023-07-30T06:42:56.282Z,12.47
2023-07-30T06:45:25.893Z,13.72
2023-07-30T06:47:55.819Z,13.23
2023-07-30T06:50:25.377Z,13.50
2023-07-30T06:52:55.241Z,12.97
2023-07-30T06:55:25.088Z,14.03
2023-07-30T06:57:54.961Z,13.37
2023-07-30T07:00:24.512Z,13.18
2023-07-30T07:02:54.210Z,11.55
2023-07-30T07:05:24.439Z,12.28
2023-07-30T07:07:54.285Z,11.47
2023-07-30T07:10:24.381Z,10.48
2023-07-30T07:12:54.226Z,10.87
2023-07-30T07:15:23.783Z,11.18
2023-07-30T07:17:53.941Z,11.30
2023-07-30T07:20:23.789Z,10.93
2023-07-30T07:22:53.623Z,9.67
2023-07-30T07:25:23.444Z,8.57
2023-07-30T07:27:53.454Z,8.67
2023-07-30T07:30:23.145Z,8.70
2023-07-30T07:32:57.446Z,7.23
2023-07-30T07:35:27.402Z,7.37
2023-07-30T07:37:57.615Z,7.13
2023-07-30T07:40:27.231Z,6.20
2023-07-30T07:42:57.631Z,5.83
2023-07-30T07:45:27.468Z,6.63
2023-07-30T07:47:57.351Z,7.13
2023-07-30T07:50:27.204Z,6.23
2023-07-30T07:52:57.087Z,7.27
2023-07-30T07:55:26.978Z,6.33
2023-07-30T07:57:56.980Z,6.13
2023-07-30T08:00:26.813Z,6.65
2023-07-30T08:02:56.684Z,6.00
2023-07-30T08:05:26.871Z,6.20
2023-07-30T08:07:57.022Z,5.95
2023-07-30T08:10:26.933Z,6.53
2023-07-30T08:12:56.766Z,6.17
2023-07-30T08:15:26.625Z,6.58
2023-07-30T08:17:56.508Z,6.50
2023-07-30T08:20:26.718Z,6.58
2023-07-30T08:22:56.875Z,6.03
2023-07-30T08:25:26.439Z,6.00
2023-07-30T08:27:56.368Z,5.93
2023-07-30T08:30:26.197Z,6.08
2023-07-30T08:32:56.209Z,5.40
2023-07-30T08:35:25.744Z,6.17
2023-07-30T08:37:56.270Z,5.37
2023-07-30T08:40:26.655Z,5.83
2023-07-30T08:42:56.665Z,5.10
2023-07-30T08:45:26.510Z,5.80
2023-07-30T08:47:56.519Z,5.00
2023-07-30T08:50:27.401Z,5.03
2023-07-30T08:52:59.456Z,4.67
2023-07-30T08:55:31.147Z,3.77
2023-07-30T08:58:06.006Z,4.80
2023-07-30T09:00:38.895Z,4.83
2023-07-30T09:03:10.568Z,3.80
2023-07-30T09:05:40.894Z,4.73
2023-07-30T09:08:12.333Z,4.83
2023-07-30T09:10:41.967Z,3.80
2023-07-30T09:13:11.808Z,4.50
2023-07-30T09:15:42.613Z,4.10
2023-07-30T09:18:12.321Z,4.35
2023-07-30T09:20:43.978Z,4.87
2023-07-30T09:23:14.147Z,4.63
2023-07-30T09:25:44.113Z,4.37
2023-07-30T09:28:14.014Z,4.25
2023-07-30T09:30:43.875Z,3.60
2023-07-30T09:33:16.682Z,3.20
2023-07-30T09:35:46.677Z,3.90
2023-07-30T09:38:16.225Z,3.83
2023-07-30T09:40:46.245Z,3.87
2023-07-30T09:43:16.252Z,3.17
2023-07-30T09:45:49.026Z,3.37
2023-07-30T09:48:18.982Z,2.77
2023-07-30T09:50:48.676Z,3.50
2023-07-30T09:53:19.319Z,3.00
2023-07-30T09:55:49.202Z,2.70
2023-07-30T09:58:19.425Z,3.08
2023-07-30T10:00:51.054Z,3.13
2023-07-30T10:03:21.169Z,3.73
2023-07-30T10:05:52.898Z,2.85
2023-07-30T10:08:25.852Z,3.07
2023-07-30T10:10:57.701Z,2.93
2023-07-30T10:13:29.828Z,2.27
2023-07-30T10:16:00.138Z,2.63
2023-07-30T10:18:41.902Z,1.60
2023-07-30T10:21:13.811Z,1.83
2023-07-30T10:23:54.075Z,1.40
2023-07-30T10:26:32.387Z,1.50
2023-07-30T10:29:23.825Z,1.77
2023-07-30T10:31:57.883Z,1.82
2023-07-30T10:34:48.277Z,2.08
2023-07-30T10:37:24.725Z,1.43
2023-07-30T10:39:55.536Z,1.25
2023-07-30T10:42:25.369Z,1.40
2023-07-30T10:44:56.759Z,1.90
2023-07-30T10:47:36.764Z,1.60
2023-07-30T10:50:05.167Z,1.67
2023-07-30T10:52:36.549Z,1.27
2023-07-30T10:55:08.555Z,1.80
2023-07-30T10:57:40.112Z,1.10
2023-07-30T11:00:12.717Z,1.60
2023-07-30T11:02:42.685Z,1.73
2023-07-30T11:05:16.415Z,1.87
2023-07-30T11:07:54.179Z,1.60
2023-07-30T11:10:24.066Z,1.50
2023-07-30T11:12:53.980Z,1.83
2023-07-30T11:15:24.040Z,1.80
2023-07-30T11:17:58.071Z,1.73
2023-07-30T11:20:31.234Z,2.62
2023-07-30T11:23:01.087Z,2.20
2023-07-30T11:25:30.912Z,1.67
2023-07-30T11:28:00.864Z,1.70
2023-07-30T11:30:31.451Z,1.80
2023-07-30T11:33:01.701Z,1.90
2023-07-30T11:35:31.860Z,1.73
2023-07-30T11:38:01.849Z,1.90
2023-07-30T11:40:32.095Z,2.40
2023-07-30T11:43:02.034Z,1.73
2023-07-30T11:45:31.667Z,1.55
2023-07-30T11:48:12.313Z,1.60
2023-07-30T11:50:48.860Z,1.47
2023-07-30T11:53:20.536Z,1.80
2023-07-30T11:55:50.426Z,2.17
2023-07-30T11:58:20.098Z,1.50
2023-07-30T12:00:50.401Z,1.50
2023-07-30T12:03:20.266Z,1.80
2023-07-30T12:05:51.725Z,1.37
2023-07-30T12:08:24.613Z,1.50
2023-07-30T12:10:56.086Z,1.67
2023-07-30T12:13:26.886Z,1.10
2023-07-30T12:15:58.222Z,0.80
2023-07-30T12:18:30.115Z,1.50
2023-07-30T12:20:59.916Z,1.33
2023-07-30T12:23:29.740Z,1.17
2023-07-30T12:25:59.654Z,1.30
2023-07-30T12:28:29.257Z,1.50
2023-07-30T12:30:59.435Z,1.35
2023-07-30T12:33:29.336Z,0.90
2023-07-30T12:35:59.166Z,1.27
2023-07-30T12:38:29.994Z,1.10
2023-07-30T12:41:00.001Z,0.80
2023-07-30T12:43:29.827Z,1.20
2023-07-30T12:45:59.718Z,1.17
2023-07-30T12:48:29.284Z,1.15
2023-07-30T12:50:59.671Z,0.93
2023-07-30T12:53:29.816Z,0.90
2023-07-30T12:55:59.638Z,1.17
2023-07-30T12:58:29.889Z,1.05
2023-07-30T13:01:00.085Z,1.30
2023-07-30T13:03:30.058Z,1.50
2023-07-30T13:06:00.387Z,0.97
2023-07-30T13:08:30.235Z,1.53
2023-07-30T13:11:00.074Z,1.27
2023-07-30T13:13:29.922Z,1.10
2023-07-30T13:16:02.167Z,1.20
2023-07-30T13:18:32.043Z,0.93
2023-07-30T13:21:01.891Z,0.93
2023-07-30T13:23:32.877Z,0.80
2023-07-30T13:26:04.097Z,1.07
2023-07-30T13:28:33.925Z,0.90
2023-07-30T13:31:04.253Z,1.22
2023-07-30T13:33:34.447Z,0.80
2023-07-30T13:36:07.313Z,1.10
2023-07-30T13:38:37.150Z,1.00
2023-07-30T13:41:07.933Z,1.00
2023-07-30T13:43:37.809Z,0.97
2023-07-30T13:46:09.895Z,0.70
2023-07-30T13:48:39.752Z,0.93
2023-07-30T13:51:09.938Z,0.78
2023-07-30T13:53:41.394Z,1.00
2023-07-30T13:56:11.780Z,1.05
2023-07-30T13:58:41.695Z,0.60
2023-07-30T14:01:11.618Z,1.03
2023-07-30T14:03:41.445Z,1.10
2023-07-30T14:06:11.282Z,1.02
2023-07-30T14:08:41.298Z,1.20
2023-07-30T14:11:11.392Z,0.90
2023-07-30T14:13:41.909Z,1.20
2023-07-30T14:16:11.729Z,0.73
2023-07-30T14:18:42.023Z,1.57
2023-07-30T14:21:12.539Z,0.90
2023-07-30T14:23:42.353Z,1.20
2023-07-30T14:26:12.206Z,0.80
2023-07-30T14:28:42.651Z,1.10
2023-07-30T14:31:13.286Z,1.00
2023-07-30T14:33:43.134Z,1.00
2023-07-30T14:36:13.199Z,1.22
2023-07-30T14:38:43.026Z,1.30
2023-07-30T14:41:13.329Z,1.20
2023-07-30T14:43:43.201Z,1.27
2023-07-30T14:46:15.009Z,1.20
2023-07-30T14:48:45.067Z,1.03
2023-07-30T14:51:14.992Z,1.00
2023-07-30T14:53:44.897Z,1.33
2023-07-30T14:56:14.449Z,1.65
2023-07-30T14:58:44.253Z,1.10
2023-07-30T15:01:14.159Z,1.00
2023-07-30T15:03:43.844Z,1.30
2023-07-30T15:06:13.507Z,1.50
2023-07-30T15:08:43.330Z,1.80
2023-07-30T15:11:14.840Z,1.77
2023-07-30T15:13:44.670Z,2.33
2023-07-30T15:16:14.543Z,1.60
2023-07-30T15:18:44.880Z,1.70
2023-07-30T15:21:15.059Z,1.67
2023-07-30T15:23:45.714Z,2.13
2023-07-30T15:26:16.557Z,2.03
2023-07-30T15:28:46.431Z,1.73
2023-07-30T15:31:16.474Z,3.03
2023-07-30T15:33:46.317Z,2.30
2023-07-30T15:36:16.186Z,1.77
2023-07-30T15:38:46.008Z,2.27
2023-07-30T15:41:15.856Z,2.10
2023-07-30T15:43:45.715Z,2.37
2023-07-30T15:46:15.912Z,1.93
2023-07-30T15:48:45.832Z,2.47
2023-07-30T15:51:15.381Z,2.50
2023-07-30T15:53:45.977Z,1.90
2023-07-30T15:56:16.123Z,2.33
2023-07-30T15:58:45.985Z,2.30
2023-07-30T16:01:15.874Z,2.03
2023-07-30T16:03:45.758Z,2.27
2023-07-30T16:06:15.486Z,2.70
2023-07-30T16:08:45.348Z,2.07
2023-07-30T16:11:16.067Z,2.00
2023-07-30T16:13:45.920Z,2.20
2023-07-30T16:16:18.528Z,2.52
2023-07-30T16:18:49.701Z,1.92
2023-07-30T16:21:20.004Z,2.67
2023-07-30T16:23:49.675Z,2.20
2023-07-30T16:26:19.348Z,2.10
2023-07-30T16:28:49.185Z,1.93
2023-07-30T16:31:19.100Z,2.33
2023-07-30T16:33:49.121Z,1.80
2023-07-30T16:36:19.329Z,2.50
2023-07-30T16:38:49.274Z,1.83
2023-07-30T16:41:19.089Z,1.87
2023-07-30T16:43:48.940Z,1.90
2023-07-30T16:46:18.560Z,2.10
2023-07-30T16:48:48.702Z,2.10
2023-07-30T16:51:18.870Z,2.27
2023-07-30T16:53:48.704Z,2.60
2023-07-30T16:56:18.900Z,2.45
2023-07-30T16:58:48.756Z,2.70
2023-07-30T17:01:20.368Z,2.73
2023-07-30T17:03:50.224Z,2.10
2023-07-30T17:06:19.792Z,2.97
2023-07-30T17:08:49.628Z,2.90
2023-07-30T17:11:19.481Z,2.67
2023-07-30T17:13:49.314Z,3.10
2023-07-30T17:16:19.209Z,3.02
2023-07-30T17:18:50.714Z,3.30
2023-07-30T17:21:20.874Z,2.90
2023-07-30T17:23:51.164Z,2.60
2023-07-30T17:26:21.404Z,2.62
2023-07-30T17:28:51.222Z,3.03
2023-07-30T17:31:21.105Z,2.73
2023-07-30T17:33:51.248Z,2.50
2023-07-30T17:36:21.159Z,2.58
2023-07-30T17:38:51.016Z,2.57
2023-07-30T17:41:21.150Z,2.35
2023-07-30T17:43:50.994Z,1.97
2023-07-30T17:46:22.132Z,1.97
2023-07-30T17:48:52.211Z,1.87
2023-07-30T17:51:22.121Z,1.80
2023-07-30T17:53:53.831Z,2.03
2023-07-30T17:56:23.426Z,1.43
2023-07-30T17:58:53.290Z,1.93
2023-07-30T18:01:23.421Z,1.80
2023-07-30T18:03:55.161Z,1.72
2023-07-30T18:06:25.137Z,2.02
2023-07-30T18:08:54.955Z,1.70
2023-07-30T18:11:25.935Z,2.72
2023-07-30T18:13:55.765Z,2.67
2023-07-30T18:16:25.654Z,2.22
2023-07-30T18:18:55.559Z,2.47
2023-07-30T18:21:25.380Z,3.80
2023-07-30T18:23:55.236Z,3.83
2023-07-30T18:26:25.232Z,3.15
2023-07-30T18:28:55.543Z,3.90
2023-07-30T18:31:25.410Z,4.27
2023-07-30T18:33:55.043Z,3.65
2023-07-30T18:36:24.757Z,3.70
2023-07-30T18:38:54.894Z,2.77
2023-07-30T18:41:24.729Z,2.57
2023-07-30T18:43:54.639Z,3.10
2023-07-30T18:46:24.656Z,3.70
2023-07-30T18:48:55.794Z,3.40
2023-07-30T18:51:26.898Z,3.70
2023-07-30T18:53:56.787Z,2.87
2023-07-30T18:56:26.342Z,3.07
2023-07-30T18:58:56.257Z,3.17
2023-07-30T19:01:26.826Z,3.30
2023-07-30T19:03:56.669Z,3.40
2023-07-30T19:06:28.293Z,3.47
2023-07-30T19:08:57.928Z,3.80
2023-07-30T19:11:27.764Z,3.10
2023-07-30T19:13:57.641Z,3.80
2023-07-30T19:16:27.235Z,3.17
2023-07-30T19:18:57.152Z,3.57
2023-07-30T19:21:27.166Z,3.40
2023-07-30T19:23:56.985Z,3.17
2023-07-30T19:26:26.866Z,3.12
2023-07-30T19:28:56.705Z,3.13
2023-07-30T19:31:26.651Z,3.20
2023-07-30T19:34:10.977Z,3.20
2023-07-30T19:36:42.394Z,3.23
2023-07-30T19:39:12.432Z,3.40
2023-07-30T19:41:42.343Z,2.80
2023-07-30T19:44:11.880Z,2.53
2023-07-30T19:46:42.309Z,2.50
2023-07-30T19:49:13.273Z,2.30
2023-07-30T19:51:43.580Z,2.00
2023-07-30T19:54:15.473Z,2.20
2023-07-30T19:56:45.300Z,2.20
2023-07-30T19:59:14.913Z,2.20
2023-07-30T20:01:44.820Z,1.90
2023-07-30T20:04:14.545Z,1.70
2023-07-30T20:06:44.672Z,1.95
2023-07-30T20:09:14.407Z,2.00
2023-07-30T20:11:44.544Z,1.85
2023-07-30T20:14:14.281Z,1.70
2023-07-30T20:16:44.118Z,1.43
2023-07-30T20:19:14.016Z,1.40
2023-07-30T20:21:45.190Z,1.63
2023-07-30T20:24:15.030Z,1.47
2023-07-30T20:26:44.878Z,1.43
2023-07-30T20:29:14.693Z,1.67
2023-07-30T20:31:44.860Z,1.70
2023-07-30T20:34:14.730Z,1.60
2023-07-30T20:36:44.562Z,1.53
2023-07-30T20:39:14.387Z,1.77
2023-07-30T20:41:44.219Z,1.50
2023-07-30T20:44:14.057Z,1.47
2023-07-30T20:46:43.876Z,1.30
2023-07-30T20:49:13.728Z,1.30
2023-07-30T20:51:43.561Z,1.40
2023-07-30T20:54:14.200Z,1.27
2023-07-30T20:56:45.764Z,1.50
2023-07-30T20:59:16.014Z,1.60
2023-07-30T21:01:45.864Z,1.50
2023-07-30T21:04:15.692Z,1.40
2023-07-30T21:06:45.515Z,1.20
2023-07-30T21:09:15.703Z,1.47
2023-07-30T21:11:45.823Z,1.37
2023-07-30T21:14:15.668Z,1.10
2023-07-30T21:16:46.576Z,1.20
2023-07-30T21:19:16.415Z,1.67
2023-07-30T21:21:46.251Z,1.30
2023-07-30T21:24:17.014Z,1.32
2023-07-30T21:26:46.821Z,1.80
2023-07-30T21:29:16.950Z,1.50
2023-07-30T21:31:46.857Z,1.50
2023-07-30T21:34:16.709Z,1.55
2023-07-30T21:36:46.544Z,1.60
2023-07-30T21:39:16.373Z,1.27
2023-07-30T21:41:46.213Z,1.30
2023-07-30T21:44:16.018Z,1.50
2023-07-30T21:46:45.891Z,1.57
2023-07-30T21:49:15.709Z,1.77
2023-07-30T21:51:45.550Z,1.60
2023-07-30T21:54:15.441Z,1.60
2023-07-30T21:56:45.272Z,1.30
2023-07-30T21:59:15.116Z,1.90
2023-07-30T22:01:46.842Z,1.73
2023-07-30T22:04:17.482Z,1.60
2023-07-30T22:06:47.166Z,1.70
2023-07-30T22:09:17.214Z,1.60
2023-07-30T22:11:47.334Z,1.70
2023-07-30T22:14:17.120Z,1.80
2023-07-30T22:16:47.283Z,2.20
2023-07-30T22:19:17.070Z,2.23
2023-07-30T22:21:46.896Z,1.67
2023-07-30T22:24:16.740Z,2.00
2023-07-30T22:26:46.582Z,1.90
2023-07-30T22:29:16.137Z,1.60
2023-07-30T22:31:46.316Z,1.72
2023-07-30T22:34:16.445Z,1.90
2023-07-30T22:36:46.296Z,2.03
2023-07-30T22:39:16.488Z,2.00
2023-07-30T22:41:46.334Z,2.13
2023-07-30T22:44:16.147Z,2.00
2023-07-30T22:46:45.759Z,1.90
2023-07-30T22:49:15.641Z,1.63
2023-07-30T22:51:45.473Z,1.90
2023-07-30T22:54:15.302Z,1.77
2023-07-30T22:56:45.128Z,1.60
2023-07-30T22:59:15.266Z,1.60
2023-07-30T23:01:45.158Z,1.60
2023-07-30T23:04:14.730Z,1.77
2023-07-30T23:06:44.572Z,1.77
2023-07-30T23:09:14.396Z,1.90
2023-07-30T23:11:44.512Z,2.10
2023-07-30T23:14:14.414Z,2.02
2023-07-30T23:16:44.696Z,1.57
2023-07-30T23:19:14.857Z,1.80
2023-07-30T23:21:44.745Z,1.73
2023-07-30T23:24:15.383Z,1.80
2023-07-30T23:26:44.956Z,2.10
2023-07-30T23:29:14.787Z,1.90
2023-07-30T23:31:44.428Z,2.02
2023-07-30T23:34:14.254Z,1.92
2023-07-30T23:36:44.086Z,2.07
2023-07-30T23:39:13.929Z,1.87
2023-07-30T23:41:44.429Z,2.10
2023-07-30T23:44:14.256Z,1.80
2023-07-30T23:46:45.734Z,2.10
2023-07-30T23:49:15.284Z,2.10
2023-07-30T23:51:44.794Z,1.75
2023-07-30T23:54:14.335Z,2.27
2023-07-30T23:56:44.450Z,2.33
2023-07-30T23:59:14.288Z,2.00
